sensor_id;sensor_type;location;lat;lon;timestamp;P1;durP1;ratioP1;P2;durP2;ratioP2
5807;SDS011;2930;42.678;23.312;2022-10-16T00:01:22;4.20;;;3.60;;
5807;SDS011;2930;42.678;23.312;2022-10-16T00:03:49;3.95;;;3.50;;
5807;SDS011;2930;42.678;23.312;2022-10-16T00:06:17;4.35;;;3.40;;
5807;SDS011;2930;42.678;23.312;2022-10-16T00:08:44;3.25;;;3.05;;
5807;SDS011;2930;42.678;23.312;2022-10-16T00:11:11;4.32;;;3.97;;
5807;SDS011;2930;42.678;23.312;2022-10-16T00:13:41;3.67;;;3.35;;
5807;SDS011;2930;42.678;23.312;2022-10-16T00:16:08;4.90;;;3.83;;
5807;SDS011;2930;42.678;23.312;2022-10-16T00:18:35;4.30;;;4.00;;
5807;SDS011;2930;42.678;23.312;2022-10-16T00:21:06;5.22;;;3.55;;
5807;SDS011;2930;42.678;23.312;2022-10-16T00:23:33;3.45;;;3.15;;
5807;SDS011;2930;42.678;23.312;2022-10-16T00:26:02;5.28;;;3.53;;
5807;SDS011;2930;42.678;23.312;2022-10-16T00:28:30;3.83;;;3.53;;
5807;SDS011;2930;42.678;23.312;2022-10-16T00:30:56;7.68;;;3.92;;
5807;SDS011;2930;42.678;23.312;2022-10-16T00:33:23;3.83;;;3.58;;
5807;SDS011;2930;42.678;23.312;2022-10-16T00:35:49;5.60;;;3.90;;
5807;SDS011;2930;42.678;23.312;2022-10-16T00:38:15;3.60;;;3.30;;
5807;SDS011;2930;42.678;23.312;2022-10-16T00:40:41;5.68;;;3.75;;
5807;SDS011;2930;42.678;23.312;2022-10-16T00:43:41;3.77;;;3.20;;
5807;SDS011;2930;42.678;23.312;2022-10-16T00:45:59;4.07;;;3.78;;
5807;SDS011;2930;42.678;23.312;2022-10-16T00:48:26;4.05;;;3.05;;
5807;SDS011;2930;42.678;23.312;2022-10-16T00:50:52;3.43;;;3.23;;
5807;SDS011;2930;42.678;23.312;2022-10-16T00:53:18;3.15;;;2.85;;
5807;SDS011;2930;42.678;23.312;2022-10-16T00:55:45;3.97;;;3.57;;
5807;SDS011;2930;42.678;23.312;2022-10-16T00:58:11;3.80;;;3.50;;
5807;SDS011;2930;42.678;23.312;2022-10-16T01:00:36;3.50;;;3.17;;
5807;SDS011;2930;42.678;23.312;2022-10-16T01:03:02;4.32;;;3.35;;
5807;SDS011;2930;42.678;23.312;2022-10-16T01:05:48;4.43;;;3.73;;
5807;SDS011;2930;42.678;23.312;2022-10-16T01:08:27;3.20;;;3.03;;
5807;SDS011;2930;42.678;23.312;2022-10-16T01:11:12;2.90;;;2.77;;
5807;SDS011;2930;42.678;23.312;2022-10-16T01:13:47;3.73;;;3.43;;
5807;SDS011;2930;42.678;23.312;2022-10-16T01:16:21;3.53;;;3.23;;
5807;SDS011;2930;42.678;23.312;2022-10-16T01:18:53;3.23;;;3.03;;
5807;SDS011;2930;42.678;23.312;2022-10-16T01:21:24;4.23;;;3.33;;
5807;SDS011;2930;42.678;23.312;2022-10-16T01:29:34;3.33;;;3.13;;
5807;SDS011;2930;42.678;23.312;2022-10-16T01:32:15;3.30;;;3.10;;
5807;SDS011;2930;42.678;23.312;2022-10-16T01:34:48;3.67;;;3.37;;
5807;SDS011;2930;42.678;23.312;2022-10-16T01:37:24;3.83;;;3.43;;
5807;SDS011;2930;42.678;23.312;2022-10-16T01:40:11;4.00;;;3.70;;
5807;SDS011;2930;42.678;23.312;2022-10-16T01:42:45;3.03;;;2.90;;
5807;SDS011;2930;42.678;23.312;2022-10-16T01:45:16;2.97;;;2.73;;
5807;SDS011;2930;42.678;23.312;2022-10-16T01:47:45;3.40;;;3.10;;
5807;SDS011;2930;42.678;23.312;2022-10-16T01:50:13;4.53;;;3.20;;
5807;SDS011;2930;42.678;23.312;2022-10-16T01:52:42;3.77;;;3.47;;
5807;SDS011;2930;42.678;23.312;2022-10-16T01:55:12;3.30;;;3.10;;
5807;SDS011;2930;42.678;23.312;2022-10-16T01:57:43;3.00;;;2.90;;
5807;SDS011;2930;42.678;23.312;2022-10-16T02:00:12;3.33;;;2.87;;
5807;SDS011;2930;42.678;23.312;2022-10-16T02:02:40;5.03;;;3.40;;
5807;SDS011;2930;42.678;23.312;2022-10-16T02:07:38;3.17;;;3.00;;
5807;SDS011;2930;42.678;23.312;2022-10-16T02:10:03;3.53;;;3.30;;
5807;SDS011;2930;42.678;23.312;2022-10-16T02:12:30;5.70;;;3.10;;
5807;SDS011;2930;42.678;23.312;2022-10-16T02:14:58;3.47;;;3.13;;
5807;SDS011;2930;42.678;23.312;2022-10-16T02:17:24;3.97;;;3.63;;
5807;SDS011;2930;42.678;23.312;2022-10-16T02:19:50;5.00;;;3.10;;
5807;SDS011;2930;42.678;23.312;2022-10-16T02:22:24;3.03;;;2.90;;
5807;SDS011;2930;42.678;23.312;2022-10-16T02:27:51;3.53;;;3.03;;
5807;SDS011;2930;42.678;23.312;2022-10-16T02:30:30;7.33;;;3.83;;
5807;SDS011;2930;42.678;23.312;2022-10-16T02:33:04;4.43;;;3.40;;
5807;SDS011;2930;42.678;23.312;2022-10-16T02:35:33;4.63;;;3.00;;
5807;SDS011;2930;42.678;23.312;2022-10-16T02:37:59;3.20;;;3.00;;
5807;SDS011;2930;42.678;23.312;2022-10-16T02:40:25;3.10;;;2.83;;
5807;SDS011;2930;42.678;23.312;2022-10-16T02:42:52;2.43;;;2.27;;
5807;SDS011;2930;42.678;23.312;2022-10-16T02:45:19;3.80;;;2.83;;
5807;SDS011;2930;42.678;23.312;2022-10-16T02:47:45;3.03;;;2.80;;
5807;SDS011;2930;42.678;23.312;2022-10-16T02:50:11;3.10;;;2.90;;
5807;SDS011;2930;42.678;23.312;2022-10-16T02:52:36;3.13;;;2.83;;
5807;SDS011;2930;42.678;23.312;2022-10-16T02:55:02;3.03;;;2.90;;
5807;SDS011;2930;42.678;23.312;2022-10-16T02:57:28;3.60;;;2.90;;
5807;SDS011;2930;42.678;23.312;2022-10-16T02:59:54;2.60;;;2.47;;
5807;SDS011;2930;42.678;23.312;2022-10-16T03:02:20;8.70;;;3.40;;
5807;SDS011;2930;42.678;23.312;2022-10-16T03:04:46;3.50;;;3.10;;
5807;SDS011;2930;42.678;23.312;2022-10-16T03:07:11;6.00;;;3.20;;
5807;SDS011;2930;42.678;23.312;2022-10-16T03:09:37;6.50;;;3.47;;
5807;SDS011;2930;42.678;23.312;2022-10-16T03:12:03;3.63;;;3.33;;
5807;SDS011;2930;42.678;23.312;2022-10-16T03:14:29;4.37;;;3.03;;
5807;SDS011;2930;42.678;23.312;2022-10-16T03:16:54;4.00;;;3.20;;
5807;SDS011;2930;42.678;23.312;2022-10-16T03:19:20;3.37;;;3.17;;
5807;SDS011;2930;42.678;23.312;2022-10-16T03:21:46;3.00;;;2.87;;
5807;SDS011;2930;42.678;23.312;2022-10-16T03:24:11;3.80;;;3.50;;
5807;SDS011;2930;42.678;23.312;2022-10-16T03:26:37;3.70;;;3.40;;
5807;SDS011;2930;42.678;23.312;2022-10-16T03:29:03;4.83;;;3.90;;
5807;SDS011;2930;42.678;23.312;2022-10-16T03:31:29;3.93;;;3.50;;
5807;SDS011;2930;42.678;23.312;2022-10-16T03:33:55;2.60;;;2.40;;
5807;SDS011;2930;42.678;23.312;2022-10-16T03:36:20;4.57;;;3.97;;
5807;SDS011;2930;42.678;23.312;2022-10-16T03:38:46;3.87;;;3.50;;
5807;SDS011;2930;42.678;23.312;2022-10-16T03:41:12;3.77;;;3.03;;
5807;SDS011;2930;42.678;23.312;2022-10-16T03:43:37;3.60;;;3.37;;
5807;SDS011;2930;42.678;23.312;2022-10-16T03:46:03;3.47;;;3.27;;
5807;SDS011;2930;42.678;23.312;2022-10-16T03:48:29;3.70;;;3.40;;
5807;SDS011;2930;42.678;23.312;2022-10-16T03:50:55;3.93;;;3.50;;
5807;SDS011;2930;42.678;23.312;2022-10-16T03:53:20;3.10;;;2.90;;
5807;SDS011;2930;42.678;23.312;2022-10-16T03:55:46;3.50;;;3.13;;
5807;SDS011;2930;42.678;23.312;2022-10-16T03:58:12;3.33;;;3.07;;
5807;SDS011;2930;42.678;23.312;2022-10-16T04:00:44;3.50;;;3.30;;
5807;SDS011;2930;42.678;23.312;2022-10-16T04:03:11;3.70;;;2.73;;
5807;SDS011;2930;42.678;23.312;2022-10-16T04:05:37;3.20;;;3.00;;
5807;SDS011;2930;42.678;23.312;2022-10-16T04:08:03;2.60;;;2.50;;
5807;SDS011;2930;42.678;23.312;2022-10-16T04:10:29;2.93;;;2.57;;
5807;SDS011;2930;42.678;23.312;2022-10-16T04:12:54;2.67;;;2.47;;
5807;SDS011;2930;42.678;23.312;2022-10-16T04:15:21;4.83;;;3.23;;
5807;SDS011;2930;42.678;23.312;2022-10-16T04:17:48;3.30;;;3.10;;
5807;SDS011;2930;42.678;23.312;2022-10-16T04:20:13;4.33;;;3.90;;
5807;SDS011;2930;42.678;23.312;2022-10-16T04:22:39;3.23;;;2.97;;
5807;SDS011;2930;42.678;23.312;2022-10-16T04:25:05;3.17;;;2.87;;
5807;SDS011;2930;42.678;23.312;2022-10-16T04:27:31;3.37;;;2.77;;
5807;SDS011;2930;42.678;23.312;2022-10-16T04:29:57;2.70;;;2.50;;
5807;SDS011;2930;42.678;23.312;2022-10-16T04:32:23;3.13;;;2.93;;
5807;SDS011;2930;42.678;23.312;2022-10-16T04:34:49;3.17;;;2.87;;
5807;SDS011;2930;42.678;23.312;2022-10-16T04:37:14;2.43;;;2.33;;
5807;SDS011;2930;42.678;23.312;2022-10-16T04:39:40;4.63;;;3.43;;
5807;SDS011;2930;42.678;23.312;2022-10-16T04:42:06;3.40;;;3.10;;
5807;SDS011;2930;42.678;23.312;2022-10-16T04:44:31;3.13;;;2.93;;
5807;SDS011;2930;42.678;23.312;2022-10-16T04:46:57;3.73;;;3.33;;
5807;SDS011;2930;42.678;23.312;2022-10-16T04:49:23;5.90;;;2.70;;
5807;SDS011;2930;42.678;23.312;2022-10-16T04:51:48;3.80;;;3.23;;
5807;SDS011;2930;42.678;23.312;2022-10-16T04:54:14;3.33;;;3.07;;
5807;SDS011;2930;42.678;23.312;2022-10-16T04:56:40;3.00;;;2.60;;
5807;SDS011;2930;42.678;23.312;2022-10-16T04:59:12;3.07;;;2.77;;
5807;SDS011;2930;42.678;23.312;2022-10-16T05:01:40;3.20;;;3.03;;
5807;SDS011;2930;42.678;23.312;2022-10-16T05:04:06;2.77;;;2.57;;
5807;SDS011;2930;42.678;23.312;2022-10-16T05:06:32;6.23;;;2.90;;
5807;SDS011;2930;42.678;23.312;2022-10-16T05:08:58;4.20;;;3.17;;
5807;SDS011;2930;42.678;23.312;2022-10-16T05:11:23;3.53;;;3.13;;
5807;SDS011;2930;42.678;23.312;2022-10-16T05:13:49;3.33;;;3.13;;
5807;SDS011;2930;42.678;23.312;2022-10-16T05:16:14;3.20;;;3.00;;
5807;SDS011;2930;42.678;23.312;2022-10-16T05:18:40;2.90;;;2.60;;
5807;SDS011;2930;42.678;23.312;2022-10-16T05:21:06;4.00;;;3.10;;
5807;SDS011;2930;42.678;23.312;2022-10-16T05:23:32;3.53;;;3.27;;
5807;SDS011;2930;42.678;23.312;2022-10-16T05:25:58;3.10;;;2.27;;
5807;SDS011;2930;42.678;23.312;2022-10-16T05:28:25;3.57;;;3.27;;
5807;SDS011;2930;42.678;23.312;2022-10-16T05:30:52;3.13;;;2.80;;
5807;SDS011;2930;42.678;23.312;2022-10-16T05:33:19;3.83;;;3.50;;
5807;SDS011;2930;42.678;23.312;2022-10-16T05:35:49;4.07;;;3.00;;
5807;SDS011;2930;42.678;23.312;2022-10-16T05:38:15;2.53;;;2.43;;
5807;SDS011;2930;42.678;23.312;2022-10-16T05:40:42;7.17;;;3.43;;
5807;SDS011;2930;42.678;23.312;2022-10-16T05:43:08;3.23;;;3.00;;
5807;SDS011;2930;42.678;23.312;2022-10-16T05:45:34;4.63;;;3.70;;
5807;SDS011;2930;42.678;23.312;2022-10-16T05:48:00;4.13;;;3.33;;
5807;SDS011;2930;42.678;23.312;2022-10-16T05:50:26;3.23;;;3.03;;
5807;SDS011;2930;42.678;23.312;2022-10-16T05:52:52;7.43;;;3.53;;
5807;SDS011;2930;42.678;23.312;2022-10-16T05:55:18;3.13;;;2.87;;
5807;SDS011;2930;42.678;23.312;2022-10-16T05:57:43;2.83;;;2.60;;
5807;SDS011;2930;42.678;23.312;2022-10-16T06:00:09;2.70;;;2.50;;
5807;SDS011;2930;42.678;23.312;2022-10-16T06:02:35;2.67;;;2.47;;
5807;SDS011;2930;42.678;23.312;2022-10-16T06:05:01;2.00;;;2.00;;
5807;SDS011;2930;42.678;23.312;2022-10-16T06:07:27;2.83;;;2.63;;
5807;SDS011;2930;42.678;23.312;2022-10-16T06:09:53;4.97;;;3.50;;
5807;SDS011;2930;42.678;23.312;2022-10-16T06:12:18;3.30;;;3.10;;
5807;SDS011;2930;42.678;23.312;2022-10-16T06:14:45;3.13;;;2.87;;
5807;SDS011;2930;42.678;23.312;2022-10-16T06:17:14;3.50;;;3.30;;
5807;SDS011;2930;42.678;23.312;2022-10-16T06:19:40;2.90;;;2.60;;
5807;SDS011;2930;42.678;23.312;2022-10-16T06:22:06;2.83;;;2.73;;
5807;SDS011;2930;42.678;23.312;2022-10-16T06:24:33;3.30;;;3.10;;
5807;SDS011;2930;42.678;23.312;2022-10-16T06:26:58;2.90;;;2.70;;
5807;SDS011;2930;42.678;23.312;2022-10-16T06:29:24;3.23;;;3.03;;
5807;SDS011;2930;42.678;23.312;2022-10-16T06:31:50;3.97;;;3.23;;
5807;SDS011;2930;42.678;23.312;2022-10-16T06:34:15;3.27;;;2.97;;
5807;SDS011;2930;42.678;23.312;2022-10-16T06:36:41;7.83;;;3.40;;
5807;SDS011;2930;42.678;23.312;2022-10-16T06:39:08;3.47;;;3.17;;
5807;SDS011;2930;42.678;23.312;2022-10-16T06:41:34;3.40;;;3.10;;
5807;SDS011;2930;42.678;23.312;2022-10-16T06:44:00;4.13;;;3.73;;
5807;SDS011;2930;42.678;23.312;2022-10-16T06:46:26;4.30;;;3.20;;
5807;SDS011;2930;42.678;23.312;2022-10-16T06:48:52;4.13;;;3.73;;
5807;SDS011;2930;42.678;23.312;2022-10-16T06:51:21;3.60;;;3.30;;
5807;SDS011;2930;42.678;23.312;2022-10-16T06:53:49;3.30;;;3.03;;
5807;SDS011;2930;42.678;23.312;2022-10-16T06:56:17;3.75;;;3.45;;
5807;SDS011;2930;42.678;23.312;2022-10-16T06:58:46;3.60;;;3.25;;
5807;SDS011;2930;42.678;23.312;2022-10-16T07:01:12;4.15;;;3.78;;
5807;SDS011;2930;42.678;23.312;2022-10-16T07:03:39;6.68;;;4.68;;
5807;SDS011;2930;42.678;23.312;2022-10-16T07:06:06;4.90;;;4.45;;
5807;SDS011;2930;42.678;23.312;2022-10-16T07:08:34;4.50;;;4.10;;
5807;SDS011;2930;42.678;23.312;2022-10-16T07:11:02;5.47;;;4.97;;
5807;SDS011;2930;42.678;23.312;2022-10-16T07:13:32;5.03;;;4.63;;
5807;SDS011;2930;42.678;23.312;2022-10-16T07:16:03;4.85;;;4.47;;
5807;SDS011;2930;42.678;23.312;2022-10-16T07:18:32;5.15;;;4.18;;
5807;SDS011;2930;42.678;23.312;2022-10-16T07:21:05;4.95;;;4.55;;
5807;SDS011;2930;42.678;23.312;2022-10-16T07:23:33;5.80;;;4.95;;
5807;SDS011;2930;42.678;23.312;2022-10-16T07:25:59;5.32;;;4.85;;
5807;SDS011;2930;42.678;23.312;2022-10-16T07:28:25;7.30;;;5.95;;
5807;SDS011;2930;42.678;23.312;2022-10-16T07:30:51;7.13;;;5.97;;
5807;SDS011;2930;42.678;23.312;2022-10-16T07:33:16;6.70;;;6.07;;
5807;SDS011;2930;42.678;23.312;2022-10-16T07:35:52;7.55;;;6.47;;
5807;SDS011;2930;42.678;23.312;2022-10-16T07:38:18;6.95;;;6.03;;
5807;SDS011;2930;42.678;23.312;2022-10-16T07:40:45;7.07;;;6.20;;
5807;SDS011;2930;42.678;23.312;2022-10-16T07:43:10;8.45;;;6.97;;
5807;SDS011;2930;42.678;23.312;2022-10-16T07:45:37;8.73;;;6.78;;
5807;SDS011;2930;42.678;23.312;2022-10-16T07:48:03;8.57;;;6.72;;
5807;SDS011;2930;42.678;23.312;2022-10-16T07:50:29;9.93;;;7.00;;
5807;SDS011;2930;42.678;23.312;2022-10-16T07:52:54;7.15;;;6.45;;
5807;SDS011;2930;42.678;23.312;2022-10-16T07:55:20;7.38;;;6.72;;
5807;SDS011;2930;42.678;23.312;2022-10-16T07:57:46;6.78;;;6.15;;
5807;SDS011;2930;42.678;23.312;2022-10-16T08:00:12;6.68;;;6.03;;
5807;SDS011;2930;42.678;23.312;2022-10-16T08:02:41;9.43;;;6.32;;
5807;SDS011;2930;42.678;23.312;2022-10-16T08:05:07;5.65;;;5.25;;
5807;SDS011;2930;42.678;23.312;2022-10-16T08:07:33;6.43;;;5.82;;
5807;SDS011;2930;42.678;23.312;2022-10-16T08:09:58;5.22;;;4.80;;
5807;SDS011;2930;42.678;23.312;2022-10-16T08:12:25;4.82;;;4.60;;
5807;SDS011;2930;42.678;23.312;2022-10-16T08:14:51;5.18;;;4.90;;
5807;SDS011;2930;42.678;23.312;2022-10-16T08:17:17;4.78;;;4.40;;
5807;SDS011;2930;42.678;23.312;2022-10-16T08:19:45;4.28;;;4.07;;
5807;SDS011;2930;42.678;23.312;2022-10-16T08:22:12;4.50;;;4.30;;
5807;SDS011;2930;42.678;23.312;2022-10-16T08:24:39;4.20;;;3.22;;
5807;SDS011;2930;42.678;23.312;2022-10-16T08:27:06;6.63;;;3.95;;
5807;SDS011;2930;42.678;23.312;2022-10-16T08:29:32;3.50;;;3.20;;
5807;SDS011;2930;42.678;23.312;2022-10-16T08:31:58;2.95;;;2.85;;
5807;SDS011;2930;42.678;23.312;2022-10-16T08:34:23;3.85;;;3.00;;
5807;SDS011;2930;42.678;23.312;2022-10-16T08:36:49;6.30;;;3.00;;
5807;SDS011;2930;42.678;23.312;2022-10-16T08:39:15;4.95;;;3.30;;
5807;SDS011;2930;42.678;23.312;2022-10-16T08:44:29;3.10;;;2.88;;
5807;SDS011;2930;42.678;23.312;2022-10-16T08:49:41;4.78;;;2.58;;
5807;SDS011;2930;42.678;23.312;2022-10-16T08:52:13;2.80;;;2.60;;
5807;SDS011;2930;42.678;23.312;2022-10-16T08:54:42;2.55;;;2.35;;
5807;SDS011;2930;42.678;23.312;2022-10-16T08:57:13;2.33;;;1.88;;
5807;SDS011;2930;42.678;23.312;2022-10-16T08:59:42;2.83;;;2.60;;
5807;SDS011;2930;42.678;23.312;2022-10-16T09:02:17;2.78;;;2.67;;
5807;SDS011;2930;42.678;23.312;2022-10-16T09:07:47;1.50;;;1.50;;
5807;SDS011;2930;42.678;23.312;2022-10-16T09:10:30;1.73;;;1.58;;
5807;SDS011;2930;42.678;23.312;2022-10-16T09:13:21;1.88;;;1.77;;
5807;SDS011;2930;42.678;23.312;2022-10-16T09:21:18;2.20;;;2.10;;
5807;SDS011;2930;42.678;23.312;2022-10-16T09:23:48;1.65;;;1.60;;
5807;SDS011;2930;42.678;23.312;2022-10-16T09:26:15;1.10;;;1.10;;
5807;SDS011;2930;42.678;23.312;2022-10-16T09:28:44;1.52;;;1.52;;
5807;SDS011;2930;42.678;23.312;2022-10-16T09:31:20;3.75;;;1.33;;
5807;SDS011;2930;42.678;23.312;2022-10-16T09:33:54;1.20;;;1.20;;
5807;SDS011;2930;42.678;23.312;2022-10-16T09:36:23;1.35;;;1.35;;
5807;SDS011;2930;42.678;23.312;2022-10-16T09:39:00;1.85;;;1.60;;
5807;SDS011;2930;42.678;23.312;2022-10-16T09:41:30;1.55;;;1.45;;
5807;SDS011;2930;42.678;23.312;2022-10-16T09:44:00;1.40;;;1.40;;
5807;SDS011;2930;42.678;23.312;2022-10-16T09:46:28;1.65;;;1.55;;
5807;SDS011;2930;42.678;23.312;2022-10-16T09:49:00;1.58;;;1.30;;
5807;SDS011;2930;42.678;23.312;2022-10-16T09:51:45;1.52;;;1.52;;
5807;SDS011;2930;42.678;23.312;2022-10-16T09:56:40;1.65;;;1.55;;
5807;SDS011;2930;42.678;23.312;2022-10-16T09:59:13;1.95;;;1.85;;
5807;SDS011;2930;42.678;23.312;2022-10-16T10:01:56;2.58;;;1.80;;
5807;SDS011;2930;42.678;23.312;2022-10-16T10:04:36;1.50;;;1.50;;
5807;SDS011;2930;42.678;23.312;2022-10-16T10:07:15;1.48;;;1.48;;
5807;SDS011;2930;42.678;23.312;2022-10-16T10:09:45;1.52;;;1.52;;
5807;SDS011;2930;42.678;23.312;2022-10-16T10:12:17;2.08;;;1.63;;
5807;SDS011;2930;42.678;23.312;2022-10-16T10:14:49;1.38;;;1.38;;
5807;SDS011;2930;42.678;23.312;2022-10-16T10:17:18;1.70;;;1.60;;
5807;SDS011;2930;42.678;23.312;2022-10-16T10:19:47;2.25;;;1.50;;
5807;SDS011;2930;42.678;23.312;2022-10-16T10:30:37;1.45;;;1.35;;
5807;SDS011;2930;42.678;23.312;2022-10-16T10:36:17;1.63;;;1.42;;
5807;SDS011;2930;42.678;23.312;2022-10-16T10:38:53;1.38;;;1.38;;
5807;SDS011;2930;42.678;23.312;2022-10-16T10:53:15;1.55;;;1.45;;
5807;SDS011;2930;42.678;23.312;2022-10-16T10:58:27;1.80;;;1.80;;
5807;SDS011;2930;42.678;23.312;2022-10-16T11:01:08;1.20;;;1.20;;
5807;SDS011;2930;42.678;23.312;2022-10-16T11:09:02;1.48;;;1.48;;
5807;SDS011;2930;42.678;23.312;2022-10-16T11:11:41;1.38;;;1.20;;
5807;SDS011;2930;42.678;23.312;2022-10-16T11:14:17;1.33;;;1.33;;
5807;SDS011;2930;42.678;23.312;2022-10-16T11:19:46;1.08;;;1.02;;
5807;SDS011;2930;42.678;23.312;2022-10-16T11:30:20;1.25;;;1.25;;
5807;SDS011;2930;42.678;23.312;2022-10-16T11:37:58;1.02;;;1.02;;
5807;SDS011;2930;42.678;23.312;2022-10-16T11:40:31;1.45;;;1.45;;
5807;SDS011;2930;42.678;23.312;2022-10-16T11:43:04;1.52;;;1.30;;
5807;SDS011;2930;42.678;23.312;2022-10-16T11:45:45;1.08;;;1.08;;
5807;SDS011;2930;42.678;23.312;2022-10-16T11:50:54;1.17;;;1.17;;
5807;SDS011;2930;42.678;23.312;2022-10-16T11:56:11;2.75;;;1.10;;
5807;SDS011;2930;42.678;23.312;2022-10-16T12:01:43;3.42;;;1.50;;
5807;SDS011;2930;42.678;23.312;2022-10-16T12:07:21;1.45;;;0.95;;
5807;SDS011;2930;42.678;23.312;2022-10-16T12:09:52;1.02;;;1.02;;
5807;SDS011;2930;42.678;23.312;2022-10-16T12:12:28;1.27;;;1.27;;
5807;SDS011;2930;42.678;23.312;2022-10-16T12:15:26;1.20;;;1.10;;
5807;SDS011;2930;42.678;23.312;2022-10-16T12:17:53;1.50;;;1.40;;
5807;SDS011;2930;42.678;23.312;2022-10-16T12:20:41;1.20;;;1.20;;
5807;SDS011;2930;42.678;23.312;2022-10-16T12:23:16;1.30;;;1.30;;
5807;SDS011;2930;42.678;23.312;2022-10-16T12:25:53;2.10;;;1.90;;
5807;SDS011;2930;42.678;23.312;2022-10-16T12:28:21;1.40;;;1.40;;
5807;SDS011;2930;42.678;23.312;2022-10-16T12:31:03;2.42;;;1.60;;
5807;SDS011;2930;42.678;23.312;2022-10-16T12:33:32;1.17;;;1.17;;
5807;SDS011;2930;42.678;23.312;2022-10-16T12:36:04;1.63;;;1.63;;
5807;SDS011;2930;42.678;23.312;2022-10-16T12:38:38;1.55;;;1.50;;
5807;SDS011;2930;42.678;23.312;2022-10-16T12:41:05;1.75;;;1.50;;
5807;SDS011;2930;42.678;23.312;2022-10-16T12:43:40;1.48;;;1.48;;
5807;SDS011;2930;42.678;23.312;2022-10-16T12:48:33;1.30;;;1.30;;
5807;SDS011;2930;42.678;23.312;2022-10-16T12:54:14;1.65;;;1.65;;
5807;SDS011;2930;42.678;23.312;2022-10-16T13:24:51;1.13;;;1.13;;
5807;SDS011;2930;42.678;23.312;2022-10-16T13:30:27;1.05;;;1.05;;
5807;SDS011;2930;42.678;23.312;2022-10-16T13:33:02;15.38;;;2.45;;
5807;SDS011;2930;42.678;23.312;2022-10-16T13:35:34;1.42;;;1.42;;
5807;SDS011;2930;42.678;23.312;2022-10-16T13:38:05;1.50;;;1.50;;
5807;SDS011;2930;42.678;23.312;2022-10-16T13:40:47;1.60;;;1.60;;
5807;SDS011;2930;42.678;23.312;2022-10-16T13:46:04;1.48;;;1.48;;
5807;SDS011;2930;42.678;23.312;2022-10-16T13:49:23;1.00;;;1.00;;
5807;SDS011;2930;42.678;23.312;2022-10-16T13:52:04;1.40;;;1.40;;
5807;SDS011;2930;42.678;23.312;2022-10-16T13:54:34;1.30;;;1.30;;
5807;SDS011;2930;42.678;23.312;2022-10-16T13:57:06;1.17;;;1.17;;
5807;SDS011;2930;42.678;23.312;2022-10-16T13:59:33;1.30;;;1.30;;
5807;SDS011;2930;42.678;23.312;2022-10-16T14:01:59;2.05;;;1.15;;
5807;SDS011;2930;42.678;23.312;2022-10-16T14:04:32;1.25;;;1.15;;
5807;SDS011;2930;42.678;23.312;2022-10-16T14:06:58;0.98;;;0.98;;
5807;SDS011;2930;42.678;23.312;2022-10-16T14:09:27;1.48;;;1.38;;
5807;SDS011;2930;42.678;23.312;2022-10-16T14:12:02;1.45;;;1.40;;
5807;SDS011;2930;42.678;23.312;2022-10-16T14:14:40;1.42;;;1.30;;
5807;SDS011;2930;42.678;23.312;2022-10-16T14:17:18;1.35;;;1.35;;
5807;SDS011;2930;42.678;23.312;2022-10-16T14:19:53;1.00;;;1.00;;
5807;SDS011;2930;42.678;23.312;2022-10-16T14:24:54;1.10;;;1.10;;
5807;SDS011;2930;42.678;23.312;2022-10-16T14:30:08;1.48;;;1.38;;
5807;SDS011;2930;42.678;23.312;2022-10-16T14:32:40;1.15;;;1.15;;
5807;SDS011;2930;42.678;23.312;2022-10-16T14:35:21;1.10;;;1.10;;
5807;SDS011;2930;42.678;23.312;2022-10-16T14:37:53;1.00;;;1.00;;
5807;SDS011;2930;42.678;23.312;2022-10-16T14:40:21;1.08;;;1.08;;
5807;SDS011;2930;42.678;23.312;2022-10-16T14:42:49;1.20;;;1.20;;
5807;SDS011;2930;42.678;23.312;2022-10-16T14:45:18;7.28;;;1.23;;
5807;SDS011;2930;42.678;23.312;2022-10-16T14:47:47;0.80;;;0.80;;
5807;SDS011;2930;42.678;23.312;2022-10-16T14:50:15;3.47;;;1.25;;
5807;SDS011;2930;42.678;23.312;2022-10-16T14:52:41;1.20;;;1.00;;
5807;SDS011;2930;42.678;23.312;2022-10-16T14:55:09;3.60;;;1.30;;
5807;SDS011;2930;42.678;23.312;2022-10-16T14:57:35;1.08;;;1.08;;
5807;SDS011;2930;42.678;23.312;2022-10-16T15:00:08;1.92;;;1.00;;
5807;SDS011;2930;42.678;23.312;2022-10-16T15:02:40;1.02;;;1.02;;
5807;SDS011;2930;42.678;23.312;2022-10-16T15:07:44;2.13;;;1.05;;
5807;SDS011;2930;42.678;23.312;2022-10-16T15:10:11;5.38;;;1.55;;
5807;SDS011;2930;42.678;23.312;2022-10-16T15:12:38;0.98;;;0.98;;
5807;SDS011;2930;42.678;23.312;2022-10-16T15:17:49;3.45;;;1.35;;
5807;SDS011;2930;42.678;23.312;2022-10-16T15:20:21;2.60;;;1.63;;
5807;SDS011;2930;42.678;23.312;2022-10-16T15:22:50;2.17;;;1.08;;
5807;SDS011;2930;42.678;23.312;2022-10-16T15:25:26;1.27;;;1.27;;
5807;SDS011;2930;42.678;23.312;2022-10-16T15:27:52;1.20;;;1.20;;
5807;SDS011;2930;42.678;23.312;2022-10-16T15:30:18;1.50;;;1.00;;
5807;SDS011;2930;42.678;23.312;2022-10-16T15:32:44;2.08;;;1.35;;
5807;SDS011;2930;42.678;23.312;2022-10-16T15:35:09;1.08;;;1.08;;
5807;SDS011;2930;42.678;23.312;2022-10-16T15:37:35;1.20;;;1.10;;
5807;SDS011;2930;42.678;23.312;2022-10-16T15:40:01;1.00;;;1.00;;
5807;SDS011;2930;42.678;23.312;2022-10-16T15:42:27;1.05;;;1.02;;
5807;SDS011;2930;42.678;23.312;2022-10-16T15:44:53;1.60;;;1.20;;
5807;SDS011;2930;42.678;23.312;2022-10-16T15:47:18;1.10;;;1.10;;
5807;SDS011;2930;42.678;23.312;2022-10-16T15:49:44;1.23;;;1.23;;
5807;SDS011;2930;42.678;23.312;2022-10-16T15:52:10;3.65;;;1.40;;
5807;SDS011;2930;42.678;23.312;2022-10-16T15:54:36;1.17;;;1.17;;
5807;SDS011;2930;42.678;23.312;2022-10-16T15:57:02;1.50;;;1.50;;
5807;SDS011;2930;42.678;23.312;2022-10-16T15:59:28;1.00;;;1.00;;
5807;SDS011;2930;42.678;23.312;2022-10-16T16:01:53;1.40;;;1.17;;
5807;SDS011;2930;42.678;23.312;2022-10-16T16:04:19;1.05;;;1.05;;
5807;SDS011;2930;42.678;23.312;2022-10-16T16:06:45;1.13;;;1.10;;
5807;SDS011;2930;42.678;23.312;2022-10-16T16:09:11;1.30;;;1.20;;
5807;SDS011;2930;42.678;23.312;2022-10-16T16:11:38;2.10;;;2.00;;
5807;SDS011;2930;42.678;23.312;2022-10-16T16:14:07;3.15;;;2.42;;
5807;SDS011;2930;42.678;23.312;2022-10-16T16:16:37;1.75;;;1.65;;
5807;SDS011;2930;42.678;23.312;2022-10-16T16:19:04;1.95;;;1.95;;
5807;SDS011;2930;42.678;23.312;2022-10-16T16:21:31;2.50;;;2.35;;
5807;SDS011;2930;42.678;23.312;2022-10-16T16:23:57;2.80;;;2.40;;
5807;SDS011;2930;42.678;23.312;2022-10-16T16:26:24;3.13;;;2.30;;
5807;SDS011;2930;42.678;23.312;2022-10-16T16:28:57;2.90;;;1.77;;
5807;SDS011;2930;42.678;23.312;2022-10-16T16:31:24;1.83;;;1.40;;
5807;SDS011;2930;42.678;23.312;2022-10-16T16:33:51;1.95;;;1.80;;
5807;SDS011;2930;42.678;23.312;2022-10-16T16:36:17;1.73;;;1.63;;
5807;SDS011;2930;42.678;23.312;2022-10-16T16:38:43;2.10;;;2.00;;
5807;SDS011;2930;42.678;23.312;2022-10-16T16:43:38;1.65;;;1.55;;
5807;SDS011;2930;42.678;23.312;2022-10-16T16:46:03;2.08;;;1.70;;
5807;SDS011;2930;42.678;23.312;2022-10-16T16:48:29;2.05;;;1.95;;
5807;SDS011;2930;42.678;23.312;2022-10-16T16:50:56;2.13;;;2.03;;
5807;SDS011;2930;42.678;23.312;2022-10-16T16:53:22;2.50;;;2.33;;
5807;SDS011;2930;42.678;23.312;2022-10-16T16:55:48;3.25;;;2.75;;
5807;SDS011;2930;42.678;23.312;2022-10-16T16:58:13;5.10;;;3.58;;
5807;SDS011;2930;42.678;23.312;2022-10-16T17:00:45;5.10;;;3.80;;
5807;SDS011;2930;42.678;23.312;2022-10-16T17:03:11;4.97;;;3.20;;
5807;SDS011;2930;42.678;23.312;2022-10-16T17:05:37;4.20;;;3.78;;
5807;SDS011;2930;42.678;23.312;2022-10-16T17:08:05;3.63;;;3.38;;
5807;SDS011;2930;42.678;23.312;2022-10-16T17:10:31;5.88;;;3.80;;
5807;SDS011;2930;42.678;23.312;2022-10-16T17:12:57;3.80;;;3.53;;
5807;SDS011;2930;42.678;23.312;2022-10-16T17:15:23;5.18;;;4.30;;
5807;SDS011;2930;42.678;23.312;2022-10-16T17:17:48;4.43;;;3.90;;
5807;SDS011;2930;42.678;23.312;2022-10-16T17:20:14;13.30;;;4.68;;
5807;SDS011;2930;42.678;23.312;2022-10-16T17:22:40;9.80;;;4.57;;
5807;SDS011;2930;42.678;23.312;2022-10-16T17:25:06;4.85;;;4.20;;
5807;SDS011;2930;42.678;23.312;2022-10-16T17:27:33;8.73;;;3.42;;
5807;SDS011;2930;42.678;23.312;2022-10-16T17:29:59;4.30;;;3.78;;